createdAt,value
2022-12-28T00:02:24.610Z,19.90
2022-12-28T00:04:52.194Z,19.90
2022-12-28T00:07:19.814Z,19.90
2022-12-28T00:09:47.306Z,19.90
2022-12-28T00:12:14.886Z,19.90
2022-12-28T00:14:42.535Z,19.90
2022-12-28T00:17:13.775Z,19.80
2022-12-28T00:19:41.277Z,19.80
2022-12-28T00:22:08.839Z,19.80
2022-12-28T00:24:36.345Z,19.90
2022-12-28T00:27:03.946Z,19.90
2022-12-28T00:29:31.846Z,19.90
2022-12-28T00:31:59.497Z,20.00
2022-12-28T00:34:27.877Z,20.00
2022-12-28T00:37:08.659Z,20.10
2022-12-28T00:39:40.751Z,20.10
2022-12-28T00:42:08.506Z,20.20
2022-12-28T00:44:36.132Z,20.30
2022-12-28T00:47:03.662Z,20.40
2022-12-28T00:49:31.243Z,20.40
2022-12-28T00:51:58.816Z,20.50
2022-12-28T00:54:26.389Z,20.60
2022-12-28T00:56:54.203Z,20.60
2022-12-28T00:59:21.928Z,20.70
2022-12-28T01:01:49.742Z,20.70
2022-12-28T01:04:20.911Z,20.80
2022-12-28T01:06:48.887Z,20.90
2022-12-28T01:09:20.795Z,21.00
2022-12-28T01:11:51.557Z,21.00
2022-12-28T01:14:21.075Z,21.00
2022-12-28T01:16:50.580Z,21.10
2022-12-28T01:19:22.426Z,21.10
2022-12-28T01:21:50.793Z,21.20
2022-12-28T01:24:23.408Z,21.20
2022-12-28T01:26:51.435Z,21.30
2022-12-28T01:29:19.087Z,21.30
2022-12-28T01:31:47.089Z,21.40
2022-12-28T01:34:15.313Z,21.30
2022-12-28T01:36:42.926Z,21.50
2022-12-28T01:39:13.001Z,21.50
2022-12-28T01:41:42.259Z,21.60
2022-12-28T01:44:13.324Z,21.70
2022-12-28T01:46:41.054Z,21.70
2022-12-28T01:49:18.314Z,21.80
2022-12-28T01:52:04.393Z,21.90
2022-12-28T01:54:39.030Z,22.00
2022-12-28T01:57:08.244Z,22.10
2022-12-28T01:59:39.222Z,22.20
2022-12-28T02:02:07.676Z,22.30
2022-12-28T02:04:35.781Z,22.40
2022-12-28T02:07:04.197Z,22.50
2022-12-28T02:09:39.958Z,22.60
2022-12-28T02:12:13.820Z,22.70
2022-12-28T02:14:43.153Z,22.80
2022-12-28T02:17:12.061Z,22.90
2022-12-28T02:19:46.830Z,22.90
2022-12-28T02:22:27.780Z,23.00
2022-12-28T02:25:12.521Z,23.10
2022-12-28T02:27:49.072Z,23.20
2022-12-28T02:30:17.618Z,23.20
2022-12-28T02:32:48.952Z,23.30
2022-12-28T02:35:29.598Z,23.40
2022-12-28T02:38:02.068Z,23.40
2022-12-28T02:40:39.723Z,23.40
2022-12-28T02:43:07.943Z,23.50
2022-12-28T02:45:57.591Z,23.60
2022-12-28T02:48:43.920Z,23.60
2022-12-28T02:51:17.511Z,23.70
2022-12-28T02:54:02.606Z,23.70
2022-12-28T02:56:49.275Z,23.70
2022-12-28T02:59:29.418Z,23.80
2022-12-28T03:02:06.689Z,23.80
2022-12-28T03:04:46.696Z,23.80
2022-12-28T03:07:36.551Z,23.90
2022-12-28T03:10:07.730Z,23.90
2022-12-28T03:13:03.362Z,24.00
2022-12-28T03:15:38.581Z,24.00
2022-12-28T03:18:35.379Z,24.10
2022-12-28T03:21:24.040Z,24.10
2022-12-28T03:24:13.345Z,24.20
2022-12-28T03:27:03.758Z,24.30
2022-12-28T03:29:52.993Z,24.30
2022-12-28T03:32:23.113Z,24.30
2022-12-28T03:34:54.977Z,24.30
2022-12-28T03:37:27.756Z,24.40
2022-12-28T03:40:01.886Z,24.50
2022-12-28T03:43:01.593Z,24.50
2022-12-28T03:45:45.700Z,24.60
2022-12-28T03:48:16.673Z,24.60
2022-12-28T03:50:46.365Z,24.60
2022-12-28T03:53:14.889Z,24.60
2022-12-28T03:55:43.664Z,24.60
2022-12-28T03:58:12.225Z,24.70
2022-12-28T04:00:41.879Z,24.70
2022-12-28T04:03:09.668Z,24.80
2022-12-28T04:05:37.509Z,24.90
2022-12-28T04:08:05.228Z,25.00
2022-12-28T04:10:34.048Z,25.00
2022-12-28T04:13:01.985Z,25.10
2022-12-28T04:15:29.700Z,25.20
2022-12-28T04:18:01.079Z,25.20
2022-12-28T04:20:28.771Z,25.20
2022-12-28T04:22:56.761Z,25.30
2022-12-28T04:25:25.613Z,25.30
2022-12-28T04:27:53.186Z,25.30
2022-12-28T04:30:20.846Z,25.40
2022-12-28T04:32:49.575Z,25.50
2022-12-28T04:35:17.248Z,25.60
2022-12-28T04:37:45.008Z,25.60
2022-12-28T04:40:15.192Z,25.70
2022-12-28T04:42:43.548Z,25.80
2022-12-28T04:45:12.902Z,25.80
2022-12-28T04:47:44.191Z,25.90
2022-12-28T04:50:11.905Z,26.00
2022-12-28T04:52:39.656Z,26.00
2022-12-28T04:55:08.313Z,26.00
2022-12-28T04:57:55.995Z,26.00
2022-12-28T05:00:25.028Z,26.10
2022-12-28T05:02:52.894Z,26.00
2022-12-28T05:05:20.588Z,26.10
2022-12-28T05:07:48.988Z,26.20
2022-12-28T05:10:16.558Z,26.20
2022-12-28T05:12:45.063Z,26.30
2022-12-28T05:15:14.097Z,26.40
2022-12-28T05:17:43.110Z,26.40
2022-12-28T05:20:11.234Z,26.40
2022-12-28T05:22:45.765Z,26.40
2022-12-28T05:25:14.423Z,26.40
2022-12-28T05:27:42.237Z,26.50
2022-12-28T05:30:10.076Z,26.50
2022-12-28T05:32:37.738Z,26.60
2022-12-28T05:35:05.413Z,26.60
2022-12-28T05:37:34.143Z,26.70
2022-12-28T05:40:02.183Z,26.80
2022-12-28T05:42:30.641Z,26.80
2022-12-28T05:44:59.011Z,26.90
2022-12-28T05:47:27.288Z,26.90
2022-12-28T05:49:54.917Z,26.90
2022-12-28T05:52:22.486Z,26.90
2022-12-28T05:54:50.255Z,26.90
2022-12-28T05:57:18.678Z,26.90
2022-12-28T05:59:46.275Z,27.00
2022-12-28T06:02:14.370Z,27.00
2022-12-28T06:04:42.013Z,27.00
2022-12-28T06:07:11.279Z,27.10
2022-12-28T06:09:38.925Z,27.10
2022-12-28T06:12:09.157Z,27.10
2022-12-28T06:14:36.996Z,27.20
2022-12-28T06:17:10.155Z,27.20
2022-12-28T06:19:38.876Z,27.20
2022-12-28T06:22:08.826Z,27.20
2022-12-28T06:24:38.683Z,27.20
2022-12-28T06:27:06.647Z,27.20
2022-12-28T06:29:34.638Z,27.20
2022-12-28T06:32:02.418Z,27.20
2022-12-28T06:34:30.155Z,27.20
2022-12-28T06:37:00.403Z,27.30
2022-12-28T06:39:28.955Z,27.40
2022-12-28T06:41:58.214Z,27.40
2022-12-28T06:44:25.990Z,27.40
2022-12-28T06:47:02.518Z,27.30
2022-12-28T06:49:30.487Z,27.40
2022-12-28T06:51:59.149Z,27.40
2022-12-28T06:54:27.701Z,27.40
2022-12-28T06:56:56.341Z,27.40
2022-12-28T06:59:25.055Z,27.50
2022-12-28T07:01:57.191Z,27.50
2022-12-28T07:04:25.725Z,27.50
2022-12-28T07:06:53.504Z,27.50
2022-12-28T07:09:21.394Z,27.50
2022-12-28T07:11:51.078Z,27.50
2022-12-28T07:14:19.520Z,27.50
2022-12-28T07:16:48.761Z,27.50
2022-12-28T07:19:16.877Z,27.50
2022-12-28T07:27:48.518Z,27.60
2022-12-28T07:30:16.945Z,27.70
2022-12-28T07:32:45.006Z,27.80
2022-12-28T07:35:13.271Z,27.80
2022-12-28T07:37:41.805Z,27.80
2022-12-28T07:40:10.176Z,27.80
2022-12-28T07:42:45.061Z,27.80
2022-12-28T07:45:13.235Z,27.80
2022-12-28T07:47:43.202Z,27.80
2022-12-28T07:50:13.060Z,27.80
2022-12-28T07:53:08.184Z,27.80
2022-12-28T07:55:42.808Z,27.80
2022-12-28T07:58:11.386Z,27.80
2022-12-28T08:00:39.399Z,27.80
2022-12-28T08:03:07.964Z,27.80
2022-12-28T08:05:35.813Z,27.90
2022-12-28T08:08:07.528Z,27.90
2022-12-28T08:10:52.386Z,27.90
2022-12-28T08:13:20.060Z,28.00
2022-12-28T08:15:58.126Z,28.00
2022-12-28T08:18:26.115Z,28.10
2022-12-28T08:20:54.029Z,28.00
2022-12-28T08:23:22.272Z,28.00
2022-12-28T08:25:51.026Z,28.00
2022-12-28T08:28:21.726Z,28.00
2022-12-28T08:30:50.048Z,28.00
2022-12-28T08:33:18.308Z,28.00
2022-12-28T08:35:46.207Z,27.90
2022-12-28T08:38:13.918Z,27.90
2022-12-28T08:40:44.640Z,27.90
2022-12-28T08:43:15.446Z,27.90
2022-12-28T08:45:44.280Z,27.90
2022-12-28T08:48:12.566Z,27.90
2022-12-28T08:50:40.273Z,27.90
2022-12-28T08:53:10.341Z,27.90
2022-12-28T08:55:41.310Z,27.90
2022-12-28T08:58:09.170Z,27.90
2022-12-28T09:00:37.167Z,27.90
2022-12-28T09:03:06.951Z,27.90
2022-12-28T09:05:39.780Z,27.90
2022-12-28T09:08:07.852Z,27.90
2022-12-28T09:10:35.485Z,27.90
2022-12-28T09:13:03.995Z,27.90
2022-12-28T09:15:31.584Z,27.90
2022-12-28T09:17:59.771Z,27.90
2022-12-28T09:20:28.633Z,27.90
2022-12-28T09:23:00.818Z,27.90
2022-12-28T09:25:29.309Z,27.90
2022-12-28T09:27:59.430Z,27.80
2022-12-28T09:30:27.705Z,27.80
2022-12-28T09:33:15.242Z,27.80
2022-12-28T09:35:43.760Z,27.80
2022-12-28T09:38:11.651Z,27.80
2022-12-28T09:40:39.306Z,27.80
2022-12-28T09:43:06.871Z,27.80
2022-12-28T09:45:37.148Z,27.80
2022-12-28T09:48:07.691Z,27.70
2022-12-28T09:50:36.186Z,27.70
2022-12-28T09:53:16.163Z,27.70
2022-12-28T09:55:49.331Z,27.70
2022-12-28T09:58:17.509Z,27.70
2022-12-28T10:00:49.450Z,27.60
2022-12-28T10:03:22.283Z,27.60
2022-12-28T10:05:51.260Z,27.50
2022-12-28T10:08:20.850Z,27.50
2022-12-28T10:10:49.655Z,27.50
2022-12-28T10:16:20.691Z,27.50
2022-12-28T10:18:49.147Z,27.50
2022-12-28T10:27:02.659Z,27.30
2022-12-28T10:29:32.316Z,27.20
2022-12-28T10:32:01.384Z,27.20
2022-12-28T10:34:33.788Z,27.10
2022-12-28T10:37:14.476Z,27.00
2022-12-28T10:39:49.906Z,26.90
2022-12-28T10:42:27.006Z,26.90
2022-12-28T10:44:57.419Z,26.90
2022-12-28T10:47:29.599Z,26.80
2022-12-28T10:52:56.525Z,26.70
2022-12-28T10:55:33.212Z,26.60
2022-12-28T11:01:14.493Z,26.50
2022-12-28T11:03:45.214Z,26.40
2022-12-28T11:06:15.863Z,26.40
2022-12-28T11:08:44.704Z,26.40
2022-12-28T11:11:22.592Z,26.40
2022-12-28T11:13:56.094Z,26.30
2022-12-28T11:16:24.659Z,26.30
2022-12-28T11:18:53.040Z,26.30
2022-12-28T11:21:23.158Z,26.20
2022-12-28T11:23:52.078Z,26.10
2022-12-28T11:26:20.558Z,26.10
2022-12-28T11:28:52.427Z,26.00
2022-12-28T11:31:41.920Z,25.90
2022-12-28T11:34:14.809Z,25.90
2022-12-28T11:36:43.435Z,25.80
2022-12-28T11:39:26.198Z,25.80
2022-12-28T11:42:27.997Z,25.70
2022-12-28T11:44:49.608Z,25.60
2022-12-28T11:47:17.150Z,25.60
2022-12-28T11:49:45.494Z,25.50
2022-12-28T11:52:15.811Z,25.50
2022-12-28T11:55:03.241Z,25.40
2022-12-28T11:57:35.015Z,25.40
2022-12-28T12:00:22.789Z,25.40
2022-12-28T12:02:51.047Z,25.30
2022-12-28T12:05:36.959Z,25.30
2022-12-28T12:08:16.741Z,25.30
2022-12-28T12:10:45.514Z,25.30
2022-12-28T12:13:28.434Z,25.20
2022-12-28T12:16:00.899Z,25.20
2022-12-28T12:18:31.056Z,25.20
2022-12-28T12:21:01.754Z,25.10
2022-12-28T12:23:33.102Z,25.10
2022-12-28T12:26:10.618Z,25.10
2022-12-28T12:28:58.325Z,25.10
2022-12-28T12:31:31.474Z,25.00
2022-12-28T12:34:04.082Z,25.00
2022-12-28T12:36:43.535Z,25.00
2022-12-28T12:39:21.749Z,25.00
2022-12-28T12:41:55.320Z,25.00
2022-12-28T12:44:30.400Z,25.00
2022-12-28T12:47:16.380Z,25.00
2022-12-28T12:49:43.908Z,25.00
2022-12-28T12:52:30.819Z,25.00
2022-12-28T12:55:09.715Z,25.10
2022-12-28T12:57:45.639Z,25.10
2022-12-28T13:00:20.211Z,25.10
2022-12-28T13:03:00.503Z,25.10
2022-12-28T13:05:29.178Z,25.10
2022-12-28T13:08:00.684Z,25.10
2022-12-28T13:10:41.096Z,25.10
2022-12-28T13:13:16.685Z,25.10
2022-12-28T13:15:44.741Z,25.10
2022-12-28T13:18:44.647Z,25.10
2022-12-28T13:21:13.979Z,25.00
2022-12-28T13:23:59.747Z,25.00
2022-12-28T13:26:29.409Z,25.00
2022-12-28T13:28:58.914Z,24.90
2022-12-28T13:31:34.116Z,24.90
2022-12-28T13:34:03.372Z,24.80
2022-12-28T13:36:31.758Z,24.80
2022-12-28T13:39:05.173Z,24.70
2022-12-28T13:41:34.297Z,24.70
2022-12-28T13:44:14.264Z,24.70
2022-12-28T13:46:43.451Z,24.70
2022-12-28T13:49:12.873Z,24.70
2022-12-28T13:51:41.595Z,24.60
2022-12-28T13:54:10.120Z,24.60
2022-12-28T13:56:40.785Z,24.60
2022-12-28T13:59:11.310Z,24.60
2022-12-28T14:01:41.320Z,24.50
2022-12-28T14:04:50.745Z,24.50
2022-12-28T14:06:59.739Z,24.40
2022-12-28T14:09:28.516Z,24.40
2022-12-28T14:11:57.276Z,24.30
2022-12-28T14:14:26.690Z,24.30
2022-12-28T14:16:54.293Z,24.30
2022-12-28T14:19:22.683Z,24.20
2022-12-28T14:21:51.598Z,24.10
2022-12-28T14:24:19.107Z,24.10
2022-12-28T14:27:13.185Z,24.10
2022-12-28T14:29:46.824Z,24.00
2022-12-28T14:32:14.790Z,24.00
2022-12-28T14:34:42.737Z,24.00
2022-12-28T14:37:42.801Z,23.90
2022-12-28T14:40:17.351Z,23.90
2022-12-28T14:42:49.539Z,23.80
2022-12-28T14:45:24.943Z,23.80
2022-12-28T14:47:56.645Z,23.80
2022-12-28T14:50:25.661Z,23.80
2022-12-28T14:53:03.348Z,23.80
2022-12-28T14:55:39.210Z,23.80
2022-12-28T14:58:19.323Z,23.80
2022-12-28T15:03:53.254Z,23.70
2022-12-28T15:06:21.609Z,23.70
2022-12-28T15:08:53.159Z,23.60
2022-12-28T15:11:24.253Z,23.60
2022-12-28T15:13:51.815Z,23.60
2022-12-28T15:16:20.735Z,23.60
2022-12-28T15:18:48.301Z,23.50
2022-12-28T15:21:20.337Z,23.50
2022-12-28T15:23:54.518Z,23.50
2022-12-28T15:26:23.776Z,23.50
2022-12-28T15:28:51.339Z,23.50
2022-12-28T15:31:19.724Z,23.60
2022-12-28T15:33:47.520Z,23.60
2022-12-28T15:36:18.896Z,23.60
2022-12-28T15:38:47.129Z,23.70
2022-12-28T15:41:34.138Z,23.80
2022-12-28T15:44:02.127Z,23.80
2022-12-28T15:46:29.705Z,23.90
2022-12-28T15:48:58.162Z,24.00
2022-12-28T15:51:25.607Z,24.00
2022-12-28T15:53:53.145Z,24.00
2022-12-28T15:56:21.708Z,24.00
2022-12-28T15:58:49.201Z,24.00
2022-12-28T16:01:16.882Z,24.00
2022-12-28T16:03:44.569Z,23.90
2022-12-28T16:06:12.071Z,23.90
2022-12-28T16:08:39.590Z,23.90
2022-12-28T16:11:25.103Z,23.80
2022-12-28T16:13:53.552Z,23.90
2022-12-28T16:16:21.586Z,23.80
2022-12-28T16:18:49.915Z,23.80
2022-12-28T16:21:17.521Z,23.70
2022-12-28T16:23:45.287Z,23.70
2022-12-28T16:26:13.524Z,23.60
2022-12-28T16:28:42.063Z,23.60
2022-12-28T16:31:22.464Z,23.60
2022-12-28T16:34:01.872Z,23.50
2022-12-28T16:36:29.896Z,23.50
2022-12-28T16:38:57.741Z,23.40
2022-12-28T16:41:25.890Z,23.30
2022-12-28T16:44:00.560Z,23.30
2022-12-28T16:46:30.998Z,23.30
2022-12-28T16:49:02.281Z,23.20
2022-12-28T16:51:30.727Z,23.30
2022-12-28T16:53:58.475Z,23.20
2022-12-28T16:56:26.071Z,23.20
2022-12-28T16:59:02.823Z,23.20
2022-12-28T17:01:30.465Z,23.20
2022-12-28T17:04:03.685Z,23.10
2022-12-28T17:06:31.863Z,23.20
2022-12-28T17:09:01.427Z,23.20
2022-12-28T17:11:29.121Z,23.10
2022-12-28T17:14:00.685Z,23.10
2022-12-28T17:16:28.995Z,23.10
2022-12-28T17:18:57.328Z,23.10
2022-12-28T17:21:25.625Z,23.10
2022-12-28T17:23:53.197Z,23.00
2022-12-28T17:26:20.868Z,23.00
2022-12-28T17:28:48.332Z,23.00
2022-12-28T17:31:17.148Z,23.00
2022-12-28T17:33:50.830Z,23.00
2022-12-28T17:36:18.536Z,23.00
2022-12-28T17:38:48.251Z,22.90
2022-12-28T17:41:17.840Z,23.00
2022-12-28T17:43:49.240Z,23.00
2022-12-28T17:46:17.489Z,23.00
2022-12-28T17:48:45.170Z,22.90
2022-12-28T17:51:14.324Z,22.90
2022-12-28T17:53:42.040Z,22.90
2022-12-28T17:56:10.650Z,22.80
2022-12-28T17:58:38.205Z,22.80
2022-12-28T18:01:06.210Z,22.80
2022-12-28T18:03:34.510Z,22.80
2022-12-28T18:06:02.213Z,22.80
2022-12-28T18:08:29.846Z,22.80
2022-12-28T18:10:57.362Z,22.70
2022-12-28T18:13:25.163Z,22.80
2022-12-28T18:15:52.951Z,22.70
2022-12-28T18:18:20.510Z,22.70
2022-12-28T18:21:01.632Z,22.70
2022-12-28T18:23:30.167Z,22.70
2022-12-28T18:26:04.066Z,22.60
2022-12-28T18:28:32.212Z,22.60
2022-12-28T18:31:02.450Z,22.60
2022-12-28T18:33:31.285Z,22.60
2022-12-28T18:35:59.326Z,22.60
2022-12-28T18:38:26.799Z,22.60
2022-12-28T18:40:55.297Z,22.50
2022-12-28T18:43:22.894Z,22.50
2022-12-28T18:45:57.897Z,22.50
2022-12-28T18:48:25.988Z,22.50
2022-12-28T18:50:57.849Z,22.50
2022-12-28T18:53:25.995Z,22.40
2022-12-28T18:56:00.470Z,22.40
2022-12-28T18:58:28.841Z,22.40
2022-12-28T19:01:03.289Z,22.40
2022-12-28T19:03:31.173Z,22.40
2022-12-28T19:06:04.892Z,22.40
2022-12-28T19:08:33.904Z,22.30
2022-12-28T19:11:02.046Z,22.30
2022-12-28T19:13:32.832Z,22.30
2022-12-28T19:16:00.922Z,22.30
2022-12-28T19:18:28.678Z,22.30
2022-12-28T19:21:00.561Z,22.30
2022-12-28T19:23:28.013Z,22.30
2022-12-28T19:25:59.658Z,22.30
2022-12-28T19:28:27.248Z,22.20
2022-12-28T19:30:58.126Z,22.20
2022-12-28T19:33:28.624Z,22.20
2022-12-28T19:35:57.462Z,22.20
2022-12-28T19:38:25.696Z,22.20
2022-12-28T19:40:54.717Z,22.10
2022-12-28T19:43:22.487Z,22.10
2022-12-28T19:45:49.968Z,22.10
2022-12-28T19:48:17.461Z,22.00
2022-12-28T19:50:44.930Z,22.00
2022-12-28T19:53:12.385Z,22.00
2022-12-28T19:55:40.064Z,22.00
2022-12-28T19:58:07.536Z,22.00
2022-12-28T20:00:35.079Z,21.90
2022-12-28T20:03:02.619Z,21.90
2022-12-28T20:05:30.181Z,21.90
2022-12-28T20:07:57.713Z,21.90
2022-12-28T20:10:25.996Z,21.90
2022-12-28T20:12:53.468Z,21.90
2022-12-28T20:15:21.006Z,21.80
2022-12-28T20:17:48.554Z,21.80
2022-12-28T20:20:17.351Z,21.80
2022-12-28T20:22:47.199Z,21.80
2022-12-28T20:25:14.714Z,21.80
2022-12-28T20:27:42.254Z,21.80
2022-12-28T20:30:10.809Z,21.80
2022-12-28T20:32:44.401Z,21.80
2022-12-28T20:35:12.646Z,21.70
2022-12-28T20:37:40.223Z,21.70
2022-12-28T20:40:07.966Z,21.70
2022-12-28T20:42:53.892Z,21.70
2022-12-28T20:45:21.401Z,21.60
2022-12-28T20:47:48.900Z,21.60
2022-12-28T20:50:16.444Z,21.50
2022-12-28T20:52:44.033Z,21.50
2022-12-28T20:55:12.907Z,21.50
2022-12-28T20:57:40.415Z,21.40
2022-12-28T21:00:09.515Z,21.40
2022-12-28T21:02:37.044Z,21.30
2022-12-28T21:05:04.643Z,21.30
2022-12-28T21:07:32.512Z,21.30
2022-12-28T21:10:00.150Z,21.30
2022-12-28T21:12:27.696Z,21.20
2022-12-28T21:14:55.193Z,21.20
2022-12-28T21:17:24.915Z,21.20
2022-12-28T21:19:52.478Z,21.20
2022-12-28T21:22:20.037Z,21.10
2022-12-28T21:24:48.344Z,21.10
2022-12-28T21:27:15.864Z,21.10
2022-12-28T21:29:43.667Z,21.10
2022-12-28T21:32:11.244Z,21.10
2022-12-28T21:34:38.911Z,21.10
2022-12-28T21:37:24.729Z,21.10
2022-12-28T21:39:52.285Z,21.10
2022-12-28T21:42:19.837Z,21.10
2022-12-28T21:44:47.348Z,21.10
2022-12-28T21:47:14.912Z,21.10
2022-12-28T21:49:43.386Z,21.10
2022-12-28T21:52:10.902Z,21.10
2022-12-28T21:54:39.192Z,21.10
2022-12-28T21:57:06.702Z,21.10
2022-12-28T21:59:34.669Z,21.20
2022-12-28T22:02:20.697Z,21.20
2022-12-28T22:05:14.131Z,21.20
2022-12-28T22:07:41.720Z,21.20
2022-12-28T22:10:27.692Z,21.20
2022-12-28T22:12:55.283Z,21.10
2022-12-28T22:15:42.349Z,21.10
2022-12-28T22:18:30.177Z,21.00
2022-12-28T22:21:05.318Z,21.00
2022-12-28T22:23:34.849Z,20.90
2022-12-28T22:26:03.233Z,20.90
2022-12-28T22:28:31.215Z,20.80
2022-12-28T22:30:59.909Z,20.70
2022-12-28T22:33:27.655Z,20.70
2022-12-28T22:35:55.204Z,20.70
2022-12-28T22:38:22.751Z,20.60
2022-12-28T22:40:59.884Z,20.60
2022-12-28T22:43:27.457Z,20.50
2022-12-28T22:46:04.976Z,20.50
2022-12-28T22:48:32.852Z,20.50
2022-12-28T22:51:07.809Z,20.40
2022-12-28T22:53:36.710Z,20.50
2022-12-28T22:56:06.211Z,20.40
2022-12-28T22:58:34.091Z,20.40
2022-12-28T23:01:06.744Z,20.30
2022-12-28T23:03:36.063Z,20.30
2022-12-28T23:06:03.675Z,20.20
2022-12-28T23:11:34.742Z,20.10
2022-12-28T23:14:21.041Z,20.10
2022-12-28T23:16:49.327Z,20.00
2022-12-28T23:19:36.239Z,20.00
2022-12-28T23:22:22.694Z,20.00
2022-12-28T23:25:08.653Z,20.00
2022-12-28T23:27:38.392Z,20.00
2022-12-28T23:30:07.085Z,20.00
2022-12-28T23:32:34.736Z,20.00
2022-12-28T23:35:02.883Z,19.90
2022-12-28T23:37:30.943Z,20.00
2022-12-28T23:39:58.510Z,19.90
2022-12-28T23:42:26.786Z,20.00
2022-12-28T23:44:54.294Z,19.90
2022-12-28T23:47:21.846Z,19.90
2022-12-28T23:49:49.347Z,19.90
2022-12-28T23:52:22.279Z,19.90
2022-12-28T23:54:52.935Z,19.90
2022-12-28T23:57:21.081Z,19.90
2022-12-28T23:59:48.623Z,19.90
